createdAt,value
2022-12-13T00:01:45.315Z,11.82
2022-12-13T00:04:13.750Z,11.65
2022-12-13T00:06:41.054Z,11.15
2022-12-13T00:09:08.290Z,10.82
2022-12-13T00:11:35.971Z,11.68
2022-12-13T00:14:03.251Z,11.98
2022-12-13T00:16:30.565Z,12.05
2022-12-13T00:19:00.645Z,11.70
2022-12-13T00:21:29.478Z,12.10
2022-12-13T00:23:57.076Z,11.75
2022-12-13T00:26:26.248Z,11.30
2022-12-13T00:28:54.164Z,11.07
2022-12-13T00:34:10.294Z,10.82
2022-12-13T00:36:37.513Z,11.38
2022-12-13T00:39:04.732Z,12.00
2022-12-13T00:41:33.924Z,11.43
2022-12-13T00:44:01.506Z,11.70
2022-12-13T00:46:28.990Z,11.80
2022-12-13T00:48:58.655Z,13.02
2022-12-13T00:51:26.622Z,12.18
2022-12-13T00:53:53.889Z,12.75
2022-12-13T00:56:23.418Z,11.95
2022-12-13T00:58:52.338Z,12.68
2022-12-13T01:01:24.453Z,12.27
2022-12-13T01:03:53.628Z,11.60
2022-12-13T01:06:29.691Z,12.60
2022-12-13T01:08:57.074Z,12.27
2022-12-13T01:11:25.727Z,12.48
2022-12-13T01:13:52.945Z,11.25
2022-12-13T01:16:20.181Z,12.32
2022-12-13T01:18:47.447Z,12.30
2022-12-13T01:21:16.465Z,11.80
2022-12-13T01:23:43.815Z,11.02
2022-12-13T01:26:16.283Z,11.27
2022-12-13T01:28:43.679Z,10.70
2022-12-13T01:31:15.580Z,11.57
2022-12-13T01:33:42.829Z,10.35
2022-12-13T01:36:15.308Z,10.10
2022-12-13T01:38:42.566Z,10.50
2022-12-13T01:41:17.502Z,10.95
2022-12-13T01:43:48.353Z,9.90
2022-12-13T01:46:16.712Z,10.73
2022-12-13T01:49:19.698Z,9.48
2022-12-13T01:52:00.552Z,10.60
2022-12-13T01:54:33.843Z,10.52
2022-12-13T01:57:02.236Z,10.63
2022-12-13T01:59:30.426Z,11.57
2022-12-13T02:02:00.615Z,11.88
2022-12-13T02:04:44.655Z,11.35
2022-12-13T02:07:14.238Z,11.48
2022-12-13T02:09:56.913Z,10.00
2022-12-13T02:12:30.475Z,12.73
2022-12-13T02:15:05.767Z,11.45
2022-12-13T02:17:56.556Z,11.07
2022-12-13T02:20:58.531Z,11.00
2022-12-13T02:23:54.774Z,11.88
2022-12-13T02:26:46.283Z,12.48
2022-12-13T02:29:30.616Z,12.50
2022-12-13T02:32:08.298Z,11.40
2022-12-13T02:34:41.435Z,12.45
2022-12-13T02:37:18.659Z,11.48
2022-12-13T02:39:57.220Z,12.82
2022-12-13T02:42:27.217Z,12.82
2022-12-13T02:45:03.398Z,11.98
2022-12-13T02:47:30.804Z,13.52
2022-12-13T02:49:59.413Z,11.50
2022-12-13T02:52:27.555Z,12.77
2022-12-13T02:54:55.565Z,13.27
2022-12-13T02:57:36.084Z,12.55
2022-12-13T03:00:09.507Z,13.15
2022-12-13T03:02:50.490Z,12.32
2022-12-13T03:05:51.771Z,12.45
2022-12-13T03:08:23.621Z,12.05
2022-12-13T03:11:04.365Z,13.18
2022-12-13T03:13:45.004Z,13.38
2022-12-13T03:16:36.485Z,12.95
2022-12-13T03:19:07.953Z,13.52
2022-12-13T03:21:47.011Z,14.10
2022-12-13T03:24:16.847Z,13.93
2022-12-13T03:26:44.211Z,13.00
2022-12-13T03:29:11.443Z,13.27
2022-12-13T03:35:44.837Z,14.73
2022-12-13T03:38:22.379Z,15.35
2022-12-13T03:41:05.749Z,13.60
2022-12-13T03:43:32.910Z,14.45
2022-12-13T03:46:01.233Z,13.57
2022-12-13T03:48:28.512Z,14.18
2022-12-13T03:50:55.903Z,14.73
2022-12-13T03:53:32.387Z,13.45
2022-12-13T03:56:05.613Z,15.23
2022-12-13T03:58:35.795Z,13.35
2022-12-13T04:01:12.510Z,14.65
2022-12-13T04:03:40.657Z,15.10
2022-12-13T04:06:08.249Z,13.77
2022-12-13T04:08:35.715Z,15.60
2022-12-13T04:11:25.798Z,15.38
2022-12-13T04:13:53.779Z,13.57
2022-12-13T04:16:21.356Z,14.23
2022-12-13T04:18:48.714Z,14.05
2022-12-13T04:21:15.969Z,14.82
2022-12-13T04:23:43.166Z,14.57
2022-12-13T04:26:10.414Z,15.10
2022-12-13T04:28:37.630Z,16.10
2022-12-13T04:31:04.927Z,15.88
2022-12-13T04:33:33.303Z,14.73
2022-12-13T04:36:00.556Z,14.75
2022-12-13T04:38:27.754Z,15.32
2022-12-13T04:41:07.449Z,14.85
2022-12-13T04:43:34.777Z,14.30
2022-12-13T04:46:01.990Z,14.63
2022-12-13T04:48:30.863Z,14.77
2022-12-13T04:51:01.093Z,14.13
2022-12-13T04:53:31.812Z,15.00
2022-12-13T04:55:59.478Z,14.73
2022-12-13T04:58:27.386Z,14.23
2022-12-13T05:00:54.744Z,14.52
2022-12-13T05:03:22.354Z,14.75
2022-12-13T05:05:49.593Z,14.95
2022-12-13T05:08:16.901Z,13.73
2022-12-13T05:10:44.237Z,12.25
2022-12-13T05:13:11.427Z,13.32
2022-12-13T05:15:38.671Z,11.75
2022-12-13T05:18:09.827Z,13.55
2022-12-13T05:20:41.107Z,12.90
2022-12-13T05:23:09.341Z,12.15
2022-12-13T05:25:37.099Z,13.45
2022-12-13T05:28:09.096Z,12.65
2022-12-13T05:30:52.815Z,12.27
2022-12-13T05:33:22.563Z,12.20
2022-12-13T05:35:49.930Z,12.35
2022-12-13T05:38:17.481Z,12.35
2022-12-13T05:40:44.729Z,12.18
2022-12-13T05:43:21.305Z,12.02
2022-12-13T05:45:49.873Z,12.57
2022-12-13T05:48:24.202Z,12.70
2022-12-13T05:51:10.795Z,12.48
2022-12-13T05:53:41.694Z,11.35
2022-12-13T05:56:10.103Z,10.73
2022-12-13T05:58:38.324Z,10.95
2022-12-13T06:01:08.005Z,10.77
2022-12-13T06:03:35.710Z,10.82
2022-12-13T06:06:04.034Z,12.27
2022-12-13T06:08:31.341Z,10.70
2022-12-13T06:11:10.760Z,11.60
2022-12-13T06:13:43.830Z,11.18
2022-12-13T06:16:22.616Z,11.05
2022-12-13T06:18:57.531Z,11.00
2022-12-13T06:21:43.477Z,11.20
2022-12-13T06:24:14.840Z,12.23
2022-12-13T06:26:42.086Z,11.02
2022-12-13T06:29:10.430Z,11.50
2022-12-13T06:31:38.306Z,11.73
2022-12-13T06:34:14.182Z,11.38
2022-12-13T06:36:43.118Z,12.48
2022-12-13T06:39:10.330Z,10.85
2022-12-13T06:41:37.655Z,10.75
2022-12-13T06:44:05.220Z,10.65
2022-12-13T06:46:32.663Z,11.15
2022-12-13T06:49:00.118Z,10.27
2022-12-13T06:51:32.523Z,10.10
2022-12-13T06:54:02.575Z,11.45
2022-12-13T06:56:30.121Z,10.75
2022-12-13T06:59:01.649Z,10.93
2022-12-13T07:01:37.643Z,11.15
2022-12-13T07:04:30.067Z,11.32
2022-12-13T07:07:01.536Z,10.48
2022-12-13T07:09:32.584Z,10.68
2022-12-13T07:11:59.953Z,11.18
2022-12-13T07:14:27.324Z,11.43
2022-12-13T07:16:59.571Z,10.52
2022-12-13T07:19:35.244Z,10.65
2022-12-13T07:22:09.495Z,11.00
2022-12-13T07:24:36.767Z,11.30
2022-12-13T07:27:04.530Z,10.88
2022-12-13T07:29:31.856Z,10.60
2022-12-13T07:32:01.496Z,10.68
2022-12-13T07:34:30.316Z,10.43
2022-12-13T07:36:57.633Z,10.93
2022-12-13T07:39:28.426Z,10.93
2022-12-13T07:41:56.099Z,10.48
2022-12-13T07:44:23.998Z,10.63
2022-12-13T07:46:51.291Z,10.65
2022-12-13T07:49:18.695Z,10.07
2022-12-13T07:51:45.908Z,10.52
2022-12-13T07:54:13.103Z,10.20
2022-12-13T07:56:40.304Z,10.88
2022-12-13T07:59:07.506Z,10.25
2022-12-13T08:01:35.135Z,11.23
2022-12-13T08:04:03.041Z,10.98
2022-12-13T08:06:34.399Z,11.02
2022-12-13T08:09:01.807Z,11.13
2022-12-13T08:11:29.039Z,11.55
2022-12-13T08:13:56.227Z,10.60
2022-12-13T08:16:26.117Z,11.63
2022-12-13T08:19:03.001Z,11.77
2022-12-13T08:21:54.435Z,10.07
2022-12-13T08:24:28.882Z,10.90
2022-12-13T08:27:03.288Z,10.80
2022-12-13T08:29:33.299Z,10.85
2022-12-13T08:32:08.258Z,10.70
2022-12-13T08:34:35.465Z,10.70
2022-12-13T08:37:04.190Z,10.98
2022-12-13T08:39:35.347Z,9.65
2022-12-13T08:42:17.212Z,10.60
2022-12-13T08:44:49.909Z,10.25
2022-12-13T08:47:22.934Z,10.77
2022-12-13T08:50:01.406Z,11.20
2022-12-13T08:52:40.149Z,12.27
2022-12-13T08:55:10.033Z,10.20
2022-12-13T08:57:37.757Z,11.07
2022-12-13T09:00:05.963Z,12.23
2022-12-13T09:02:38.457Z,11.85
2022-12-13T09:05:07.272Z,10.45
2022-12-13T09:07:36.071Z,11.35
2022-12-13T09:10:26.405Z,11.48
2022-12-13T09:13:01.923Z,11.77
2022-12-13T09:15:34.429Z,12.25
2022-12-13T09:18:04.529Z,12.60
2022-12-13T09:20:41.221Z,13.13
2022-12-13T09:23:14.254Z,12.98
2022-12-13T09:25:55.764Z,10.93
2022-12-13T09:28:23.219Z,11.98
2022-12-13T09:30:50.578Z,10.82
2022-12-13T09:33:30.733Z,11.32
2022-12-13T09:36:01.296Z,10.95
2022-12-13T09:38:35.727Z,11.05
2022-12-13T09:41:10.942Z,10.90
2022-12-13T09:43:48.823Z,11.23
2022-12-13T09:46:25.339Z,10.75
2022-12-13T09:48:53.497Z,10.68
2022-12-13T09:51:43.770Z,10.60
2022-12-13T09:54:18.133Z,8.23
2022-12-13T09:56:50.523Z,10.52
2022-12-13T09:59:25.264Z,11.23
2022-12-13T10:01:52.506Z,8.80
2022-12-13T10:04:19.794Z,10.82
2022-12-13T10:06:47.323Z,11.77
2022-12-13T10:09:14.584Z,11.85
2022-12-13T10:11:50.840Z,10.38
2022-12-13T10:14:31.899Z,10.80
2022-12-13T10:17:00.419Z,10.98
2022-12-13T10:19:39.508Z,12.10
2022-12-13T10:22:11.169Z,11.90
2022-12-13T10:24:55.507Z,12.52
2022-12-13T10:27:29.265Z,11.90
2022-12-13T10:29:57.299Z,11.27
2022-12-13T10:32:24.492Z,12.15
2022-12-13T10:34:51.761Z,12.35
2022-12-13T10:37:31.414Z,12.70
2022-12-13T10:39:59.017Z,12.32
2022-12-13T10:42:32.093Z,13.40
2022-12-13T10:45:14.627Z,12.88
2022-12-13T10:47:45.304Z,12.20
2022-12-13T10:50:26.919Z,12.68
2022-12-13T10:52:54.590Z,12.43
2022-12-13T10:55:32.406Z,12.10
2022-12-13T10:58:07.075Z,12.23
2022-12-13T11:00:34.330Z,11.68
2022-12-13T11:03:01.572Z,12.32
2022-12-13T11:05:30.566Z,10.95
2022-12-13T11:08:16.427Z,11.07
2022-12-13T11:10:43.913Z,10.50
2022-12-13T11:13:22.699Z,10.73
2022-12-13T11:15:56.696Z,10.13
2022-12-13T11:18:24.800Z,9.57
2022-12-13T11:20:57.717Z,10.90
2022-12-13T11:23:32.980Z,10.77
2022-12-13T11:26:01.871Z,10.85
2022-12-13T11:29:02.816Z,10.43
2022-12-13T11:31:53.174Z,10.00
2022-12-13T11:34:45.146Z,11.15
2022-12-13T11:37:33.759Z,9.32
2022-12-13T11:40:05.242Z,9.57
2022-12-13T11:42:56.044Z,9.35
2022-12-13T11:45:39.233Z,10.40
2022-12-13T11:48:09.581Z,10.85
2022-12-13T11:50:41.313Z,11.80
2022-12-13T11:53:20.809Z,11.35
2022-12-13T11:56:13.229Z,11.15
2022-12-13T11:59:02.510Z,12.85
2022-12-13T12:01:44.468Z,14.00
2022-12-13T12:04:39.585Z,13.63
2022-12-13T12:10:26.482Z,13.35
2022-12-13T12:12:57.730Z,12.75
2022-12-13T12:15:27.538Z,12.85
2022-12-13T12:17:57.859Z,12.95
2022-12-13T12:20:44.413Z,13.88
2022-12-13T12:23:52.749Z,14.38
2022-12-13T12:26:24.193Z,13.48
2022-12-13T12:29:45.815Z,12.70
2022-12-13T12:32:33.273Z,12.68
2022-12-13T12:35:12.459Z,12.75
2022-12-13T12:37:39.648Z,13.48
2022-12-13T12:40:16.010Z,14.93
2022-12-13T12:43:14.272Z,12.10
2022-12-13T12:46:20.891Z,13.23
2022-12-13T12:49:09.616Z,13.75
2022-12-13T12:51:55.935Z,12.32
2022-12-13T12:54:35.170Z,13.00
2022-12-13T12:57:14.310Z,13.45
2022-12-13T13:00:03.939Z,13.93
2022-12-13T13:03:13.634Z,13.38
2022-12-13T13:06:03.048Z,11.52
2022-12-13T13:08:51.615Z,13.18
2022-12-13T13:11:25.947Z,15.15
2022-12-13T13:14:19.787Z,13.73
2022-12-13T13:16:47.220Z,14.13
2022-12-13T13:19:14.373Z,14.25
2022-12-13T13:22:02.483Z,14.85
2022-12-13T13:24:34.554Z,13.90
2022-12-13T13:27:11.009Z,14.95
2022-12-13T13:29:43.684Z,14.30
2022-12-13T13:32:11.338Z,14.60
2022-12-13T13:34:43.451Z,14.57
2022-12-13T13:37:23.475Z,14.70
2022-12-13T13:40:02.002Z,13.35
2022-12-13T13:42:32.937Z,13.85
2022-12-13T13:45:24.723Z,13.45
2022-12-13T13:48:03.654Z,13.23
2022-12-13T13:51:20.112Z,12.98
2022-12-13T13:54:11.847Z,13.45
2022-12-13T13:57:09.768Z,14.02
2022-12-13T14:00:02.314Z,14.10
2022-12-13T14:03:32.916Z,13.50
2022-12-13T14:06:37.396Z,13.38
2022-12-13T14:09:31.245Z,14.13
2022-12-13T14:12:36.290Z,14.63
2022-12-13T14:15:21.554Z,14.43
2022-12-13T14:18:27.726Z,12.18
2022-12-13T14:21:24.902Z,13.80
2022-12-13T14:28:09.734Z,13.35
2022-12-13T14:30:48.224Z,13.75
2022-12-13T14:33:25.219Z,14.05
2022-12-13T14:35:59.897Z,14.57
2022-12-13T14:38:29.760Z,14.57
2022-12-13T14:41:01.575Z,14.98
2022-12-13T14:43:30.542Z,14.43
2022-12-13T14:45:59.425Z,14.70
2022-12-13T14:48:28.981Z,14.88
2022-12-13T14:50:56.845Z,14.30
2022-12-13T14:53:37.767Z,15.65
2022-12-13T14:56:27.600Z,13.93
2022-12-13T14:59:01.168Z,15.63
2022-12-13T15:01:36.099Z,15.00
2022-12-13T15:04:19.293Z,15.43
2022-12-13T15:06:48.399Z,15.18
2022-12-13T15:09:16.134Z,16.08
2022-12-13T15:11:44.078Z,15.10
2022-12-13T15:14:18.805Z,15.18
2022-12-13T15:16:50.522Z,16.85
2022-12-13T15:19:31.028Z,16.13
2022-12-13T15:22:05.517Z,16.30
2022-12-13T15:24:48.382Z,16.15
2022-12-13T15:27:19.305Z,16.38
2022-12-13T15:29:47.414Z,15.00
2022-12-13T15:32:18.857Z,15.20
2022-12-13T15:34:47.460Z,15.82
2022-12-13T15:37:35.857Z,17.00
2022-12-13T15:40:08.183Z,15.15
2022-12-13T15:42:36.945Z,16.00
2022-12-13T15:45:06.348Z,14.93
2022-12-13T15:47:33.572Z,14.32
2022-12-13T15:50:02.780Z,13.57
2022-12-13T15:52:41.200Z,13.80
2022-12-13T15:55:08.521Z,14.10
2022-12-13T15:57:51.517Z,15.38
2022-12-13T16:00:29.087Z,15.35
2022-12-13T16:03:13.085Z,14.05
2022-12-13T16:05:48.640Z,14.32
2022-12-13T16:08:30.458Z,14.73
2022-12-13T16:10:58.216Z,15.02
2022-12-13T16:13:29.423Z,15.20
2022-12-13T16:16:09.462Z,15.73
2022-12-13T16:18:54.035Z,14.82
2022-12-13T16:21:21.281Z,11.23
2022-12-13T16:23:49.301Z,15.25
2022-12-13T16:26:25.570Z,15.38
2022-12-13T16:28:53.999Z,16.35
2022-12-13T16:31:25.382Z,15.68
2022-12-13T16:33:52.718Z,16.60
2022-12-13T16:36:20.009Z,16.40
2022-12-13T16:38:47.341Z,17.13
2022-12-13T16:41:15.565Z,17.40
2022-12-13T16:44:02.021Z,16.25
2022-12-13T16:47:12.654Z,17.48
2022-12-13T16:49:26.135Z,17.75
2022-12-13T16:51:53.908Z,17.75
2022-12-13T16:54:21.770Z,18.10
2022-12-13T16:56:49.254Z,17.98
2022-12-13T16:59:26.349Z,18.15
2022-12-13T17:01:53.742Z,17.25
2022-12-13T17:04:22.410Z,18.55
2022-12-13T17:06:50.266Z,18.95
2022-12-13T17:09:18.046Z,18.40
2022-12-13T17:11:45.293Z,19.02
2022-12-13T17:14:12.518Z,18.70
2022-12-13T17:16:39.809Z,18.75
2022-12-13T17:19:07.069Z,20.73
2022-12-13T17:21:34.530Z,19.52
2022-12-13T17:24:02.851Z,18.95
2022-12-13T17:26:30.029Z,19.95
2022-12-13T17:28:57.241Z,19.30
2022-12-13T17:31:25.259Z,19.95
2022-12-13T17:33:53.581Z,19.13
2022-12-13T17:36:20.823Z,21.05
2022-12-13T17:38:48.134Z,18.95
2022-12-13T17:41:15.448Z,20.33
2022-12-13T17:43:43.381Z,20.95
2022-12-13T17:46:16.165Z,21.20
2022-12-13T17:48:45.358Z,20.67
2022-12-13T17:51:12.927Z,20.75
2022-12-13T17:53:40.447Z,21.58
2022-12-13T17:56:08.888Z,20.33
2022-12-13T17:58:36.114Z,19.90
2022-12-13T18:01:20.013Z,20.98
2022-12-13T18:03:49.944Z,20.20
2022-12-13T18:06:17.199Z,19.33
2022-12-13T18:08:44.787Z,20.33
2022-12-13T18:13:59.779Z,19.70
2022-12-13T18:16:34.060Z,20.15
2022-12-13T18:19:05.814Z,20.70
2022-12-13T18:21:33.105Z,21.15
2022-12-13T18:24:00.594Z,19.60
2022-12-13T18:26:27.819Z,20.45
2022-12-13T18:28:55.039Z,20.13
2022-12-13T18:31:23.578Z,20.55
2022-12-13T18:33:51.718Z,19.77
2022-12-13T18:36:20.164Z,20.42
2022-12-13T18:38:47.874Z,20.35
2022-12-13T18:41:17.215Z,20.55
2022-12-13T18:43:44.893Z,19.73
2022-12-13T18:46:12.499Z,20.42
2022-12-13T18:48:39.862Z,20.63
2022-12-13T18:51:07.989Z,18.20
2022-12-13T18:53:35.458Z,20.40
2022-12-13T18:56:16.139Z,20.35
2022-12-13T18:58:46.346Z,20.33
2022-12-13T19:01:13.840Z,20.15
2022-12-13T19:03:42.428Z,19.25
2022-12-13T19:06:11.139Z,19.63
2022-12-13T19:08:38.326Z,19.80
2022-12-13T19:11:05.909Z,19.73
2022-12-13T19:13:33.245Z,20.52
2022-12-13T19:16:05.651Z,18.25
2022-12-13T19:18:33.041Z,19.30
2022-12-13T19:21:00.285Z,19.48
2022-12-13T19:23:28.204Z,20.30
2022-12-13T19:25:55.803Z,19.42
2022-12-13T19:28:23.030Z,19.10
2022-12-13T19:30:50.397Z,19.75
2022-12-13T19:33:18.401Z,17.38
2022-12-13T19:35:46.523Z,19.63
2022-12-13T19:38:13.903Z,19.83
2022-12-13T19:40:42.168Z,18.80
2022-12-13T19:43:11.187Z,18.60
2022-12-13T19:45:38.649Z,17.75
2022-12-13T19:48:06.025Z,18.35
2022-12-13T19:50:33.408Z,18.60
2022-12-13T19:53:00.804Z,18.33
2022-12-13T19:55:28.215Z,18.40
2022-12-13T19:57:55.698Z,18.58
2022-12-13T20:00:23.158Z,17.77
2022-12-13T20:02:50.683Z,17.60
2022-12-13T20:05:18.387Z,17.50
2022-12-13T20:07:45.809Z,18.23
2022-12-13T20:10:15.972Z,17.85
2022-12-13T20:12:45.755Z,17.92
2022-12-13T20:15:13.330Z,17.02
2022-12-13T20:17:41.829Z,17.10
2022-12-13T20:20:09.985Z,17.45
2022-12-13T20:22:37.620Z,17.00
2022-12-13T20:25:07.098Z,17.17
2022-12-13T20:27:34.820Z,17.15
2022-12-13T20:30:02.396Z,16.85
2022-12-13T20:32:29.893Z,16.42
2022-12-13T20:34:57.861Z,17.60
2022-12-13T20:37:27.420Z,16.08
2022-12-13T20:39:54.882Z,16.65
2022-12-13T20:42:22.346Z,17.20
2022-12-13T20:44:51.025Z,16.33
2022-12-13T20:47:18.390Z,15.60
2022-12-13T20:49:48.601Z,16.13
2022-12-13T20:52:17.091Z,16.80
2022-12-13T20:54:44.518Z,16.83
2022-12-13T20:57:11.766Z,16.55
2022-12-13T20:59:39.056Z,15.23
2022-12-13T21:02:06.298Z,14.85
2022-12-13T21:04:33.683Z,14.25
2022-12-13T21:07:02.532Z,14.70
2022-12-13T21:09:29.794Z,15.45
2022-12-13T21:11:57.700Z,15.32
2022-12-13T21:14:26.471Z,14.63
2022-12-13T21:16:55.241Z,14.60
2022-12-13T21:19:35.898Z,14.55
2022-12-13T21:22:06.656Z,12.00
2022-12-13T21:24:33.836Z,14.57
2022-12-13T21:27:01.087Z,15.35
2022-12-13T21:29:28.324Z,15.88
2022-12-13T21:31:55.962Z,15.70
2022-12-13T21:34:23.554Z,15.77
2022-12-13T21:36:52.203Z,15.57
2022-12-13T21:39:24.381Z,15.32
2022-12-13T21:41:52.098Z,15.55
2022-12-13T21:44:19.307Z,14.93
2022-12-13T21:49:34.009Z,15.75
2022-12-13T21:52:01.202Z,15.57
2022-12-13T21:54:28.374Z,14.95
2022-12-13T21:57:14.431Z,15.30
2022-12-13T21:59:41.623Z,15.85
2022-12-13T22:02:17.817Z,15.48
2022-12-13T22:04:46.132Z,14.90
2022-12-13T22:07:18.688Z,14.77
2022-12-13T22:09:46.335Z,15.18
2022-12-13T22:12:35.457Z,14.80
2022-12-13T22:15:04.492Z,14.57
2022-12-13T22:17:35.554Z,15.25
2022-12-13T22:20:08.368Z,15.55
2022-12-13T22:22:35.720Z,14.80
2022-12-13T22:25:02.944Z,15.15
2022-12-13T22:27:30.313Z,16.00
2022-12-13T22:29:57.821Z,15.13
2022-12-13T22:32:26.835Z,15.35
2022-12-13T22:34:54.150Z,15.05
2022-12-13T22:37:21.521Z,16.63
2022-12-13T22:39:48.696Z,15.10
2022-12-13T22:42:15.929Z,15.27
2022-12-13T22:44:43.316Z,14.77
2022-12-13T22:47:10.486Z,14.95
2022-12-13T22:49:37.680Z,15.27
2022-12-13T22:52:05.231Z,13.80
2022-12-13T22:54:32.406Z,15.88
2022-12-13T22:56:59.602Z,16.02
2022-12-13T22:59:26.797Z,14.05
2022-12-13T23:02:02.059Z,14.30
2022-12-13T23:04:29.938Z,13.75
2022-12-13T23:06:57.425Z,14.48
2022-12-13T23:09:24.605Z,14.63
2022-12-13T23:12:10.322Z,14.65
2022-12-13T23:14:37.500Z,14.98
2022-12-13T23:17:04.889Z,15.13
2022-12-13T23:19:53.376Z,14.23
2022-12-13T23:22:21.777Z,15.30
2022-12-13T23:24:49.740Z,15.18
2022-12-13T23:27:17.239Z,15.13
2022-12-13T23:29:44.684Z,14.85
2022-12-13T23:32:12.326Z,14.90
2022-12-13T23:34:39.505Z,15.55
2022-12-13T23:37:06.675Z,14.63
2022-12-13T23:39:33.923Z,15.40
2022-12-13T23:42:01.091Z,14.45
2022-12-13T23:44:28.459Z,15.35
2022-12-13T23:46:55.898Z,14.98
2022-12-13T23:49:23.090Z,15.65
2022-12-13T23:51:50.266Z,15.13
2022-12-13T23:54:19.411Z,15.68
2022-12-13T23:56:47.045Z,15.80
2022-12-13T23:59:14.250Z,17.42
